Saint George, Canada
Current Conditions -  °F | °C
As of 10:00 AM on Sunday 25 Jan 2015 (Local Time) from CYSJ Reporting Station
Overcast Overcast  
Wind Chill: -8°   Ceiling: 8500
Heat Index: -2°   Visibility: 10mi
Dew Point: -4°   Wind: 13mph
Humidity: 86%   Direction: 270°W
Pressure: 29.24"   Gusts: 18mph
Location:  45.13°N, 66.82°W
Report Text: CYSJ 251400Z 27011G16KT 10SM FEW020 OVC085 M02/M04 A2924 RMK SC2AC6 SLP905
Loading
Personal Weather Stations






























Interactive Weather Map New forecast layout! Learn more

10-Day Weather Forecast

Advertisements
Track Severe Weather on mobile